Time;durP1;ratioP1;P1;durP2;ratioP2;P2;SDS_P1;SDS_P2;PMS_P1;PMS_P2;Temp;Humidity;BMP_temperature;BMP_pressure;BME280_temperature;BME280_humidity;BME280_pressure;Samples;Min_cycle;Max_cycle;Signal;HPM_P1;HPM_P2
2022/12/06 00:01:53;;;;;;;12.80;11.83;;;;;;;3.39;100.00;93384.63;5105895;28;20223;-73
2022/12/06 00:04:18;;;;;;;15.97;14.33;;;;;;;3.43;100.00;93384.00;5110461;28;20176;-72
2022/12/06 00:06:46;;;;;;;13.23;11.93;;;;;;;3.58;100.00;93376.66;5101759;28;20245;-72
2022/12/06 00:09:18;;;;;;;16.23;14.57;;;;;;;3.63;100.00;93376.78;5102487;28;20208;-72
2022/12/06 00:11:43;;;;;;;13.33;12.03;;;;;;;3.49;100.00;93354.72;5097503;28;20223;-72
2022/12/06 00:14:11;;;;;;;15.30;14.00;;;;;;;3.57;100.00;93367.34;5106858;28;20180;-72
2022/12/06 00:16:36;;;;;;;17.27;16.03;;;;;;;3.46;100.00;93350.00;5083070;28;20221;-70
2022/12/06 00:19:03;;;;;;;14.43;13.23;;;;;;;3.50;100.00;93358.91;5096955;28;20200;-70
2022/12/06 00:21:31;;;;;;;14.17;12.97;;;;;;;3.35;100.00;93349.97;5097216;28;20238;-71
2022/12/06 00:24:03;;;;;;;13.00;12.00;;;;;;;3.48;100.00;93365.28;5103721;28;20214;-71
2022/12/06 00:26:29;;;;;;;16.23;14.37;;;;;;;3.39;100.00;93369.94;5100177;28;20224;-73
2022/12/06 00:28:58;;;;;;;21.93;16.57;;;;;;;3.46;100.00;93362.13;5107433;28;20215;-72
2022/12/06 00:31:25;;;;;;;20.90;16.67;;;;;;;3.50;100.00;93368.44;5097040;28;20236;-72
2022/12/06 00:33:51;;;;;;;15.20;13.70;;;;;;;3.61;100.00;93371.06;5097950;28;20176;-72
2022/12/06 00:36:19;;;;;;;14.93;13.50;;;;;;;3.52;100.00;93349.13;5103530;28;20259;-74
2022/12/06 00:38:45;;;;;;;14.47;12.97;;;;;;;3.69;100.00;93377.75;5109040;28;20195;-73
2022/12/06 00:41:16;;;;;;;18.53;15.30;;;;;;;3.49;100.00;93348.81;5104237;28;20283;-73
2022/12/06 00:43:42;;;;;;;14.83;13.43;;;;;;;3.60;100.00;93350.63;5110035;28;20183;-72
2022/12/06 00:46:12;;;;;;;13.20;12.00;;;;;;;3.87;100.00;93383.66;5096080;28;20230;-75
2022/12/06 00:48:37;;;;;;;13.77;12.73;;;;;;;3.84;100.00;93349.72;5109504;28;20229;-73
2022/12/06 00:51:03;;;;;;;13.07;12.07;;;;;;;3.93;100.00;93364.69;5095195;28;20228;-72
2022/12/06 00:53:28;;;;;;;12.53;11.43;;;;;;;4.03;100.00;93361.59;5082965;28;20208;-73
2022/12/06 00:55:54;;;;;;;13.43;12.33;;;;;;;4.12;100.00;93363.63;5108043;28;20223;-72
2022/12/06 00:58:20;;;;;;;15.90;14.27;;;;;;;4.10;100.00;93359.69;5100633;28;20184;-72
2022/12/06 01:00:45;;;;;;;24.07;18.23;;;;;;;4.15;100.00;93360.59;5107821;28;20216;-73
2022/12/06 01:03:10;;;;;;;25.27;18.20;;;;;;;3.88;100.00;93330.97;5107733;28;20180;-73
2022/12/06 01:05:45;;;;;;;28.43;19.63;;;;;;;4.12;100.00;93353.31;5109679;28;20266;-73
2022/12/06 01:08:10;;;;;;;29.57;19.83;;;;;;;4.31;100.00;93361.78;5082258;28;20191;-73
2022/12/06 01:10:37;;;;;;;17.67;15.60;;;;;;;4.25;100.00;93363.44;5100651;28;20228;-73
2022/12/06 01:13:04;;;;;;;17.43;14.63;;;;;;;4.31;100.00;93354.78;5103500;28;20192;-73
2022/12/06 01:15:29;;;;;;;18.10;15.33;;;;;;;4.39;100.00;93356.28;5107969;28;20840;-73
2022/12/06 01:17:55;;;;;;;20.67;15.63;;;;;;;4.37;100.00;93356.47;5109222;28;20184;-72
2022/12/06 01:20:20;;;;;;;18.53;16.20;;;;;;;4.15;100.00;93333.97;5102544;28;20193;-73
2022/12/06 01:22:46;;;;;;;27.33;18.67;;;;;;;4.29;100.00;93343.91;5106345;28;20200;-73
2022/12/06 01:25:11;;;;;;;23.63;18.27;;;;;;;4.31;100.00;93331.53;5105486;28;20191;-73
2022/12/06 01:27:37;;;;;;;21.43;17.43;;;;;;;4.36;100.00;93334.22;5090692;28;20224;-73
2022/12/06 01:30:04;;;;;;;20.30;16.43;;;;;;;4.33;100.00;93329.50;5098688;28;20673;-73
2022/12/06 01:32:29;;;;;;;18.33;16.37;;;;;;;4.49;100.00;93338.41;5109289;28;20218;-73
2022/12/06 01:34:55;;;;;;;16.83;15.23;;;;;;;4.39;100.00;93344.13;5106012;28;20239;-73
2022/12/06 01:37:20;;;;;;;16.57;15.07;;;;;;;4.38;100.00;93342.56;5109081;28;20228;-72
2022/12/06 01:39:46;;;;;;;13.97;12.77;;;;;;;4.43;100.00;93332.34;5109872;28;20177;-72
2022/12/06 01:42:12;;;;;;;15.23;14.03;;;;;;;4.49;100.00;93328.06;5107533;28;20323;-73
2022/12/06 01:44:43;;;;;;;13.17;11.93;;;;;;;4.47;100.00;93330.88;5100988;28;20188;-72
2022/12/06 01:47:20;;;;;;;12.53;11.73;;;;;;;4.70;100.00;93335.28;5105896;28;20216;-72
2022/12/06 01:49:57;;;;;;;14.03;12.73;;;;;;;4.54;100.00;93328.19;5101464;28;20199;-73
2022/12/06 01:52:28;;;;;;;11.90;11.00;;;;;;;4.61;100.00;93324.47;5105752;28;20564;-72
2022/12/06 01:54:55;;;;;;;12.73;11.63;;;;;;;4.72;100.00;93333.25;5108828;28;20180;-72
2022/12/06 01:57:20;;;;;;;12.30;11.37;;;;;;;4.60;100.00;93329.88;5104515;28;20224;-72
2022/12/06 01:59:46;;;;;;;13.30;12.30;;;;;;;4.57;100.00;93310.44;5096628;28;20189;-72
2022/12/06 02:02:12;;;;;;;12.80;11.90;;;;;;;4.71;100.00;93332.47;5094355;28;20247;-72
2022/12/06 02:04:38;;;;;;;13.40;12.43;;;;;;;4.58;100.00;93314.59;5105654;28;20180;-72
2022/12/06 02:07:05;;;;;;;12.13;11.13;;;;;;;4.61;100.00;93326.25;5100870;28;20682;-72
2022/12/06 02:09:31;;;;;;;13.27;12.37;;;;;;;4.65;100.00;93319.66;5101869;28;20268;-73
2022/12/06 02:11:57;;;;;;;13.50;12.60;;;;;;;4.49;100.00;93295.25;5102450;28;20226;-73
2022/12/06 02:14:28;;;;;;;12.33;11.30;;;;;;;4.64;100.00;93321.44;5100346;28;20240;-72
2022/12/06 02:16:59;;;;;;;14.17;13.07;;;;;;;4.68;100.00;93322.59;5099046;28;20212;-71
2022/12/06 02:19:55;;;;;;;14.30;13.17;;;;;;;4.72;100.00;93317.72;5106049;28;20239;-72
2022/12/06 02:22:23;;;;;;;13.07;11.97;;;;;;;4.78;100.00;93314.25;5107136;28;20223;-72
2022/12/06 02:25:16;;;;;;;13.20;12.03;;;;;;;4.83;100.00;93314.34;5097909;28;20233;-75
2022/12/06 02:28:17;;;;;;;12.70;11.67;;;;;;;4.60;100.00;93297.06;5102608;28;20220;-71
2022/12/06 02:31:03;;;;;;;14.63;13.10;;;;;;;4.68;100.00;93301.09;5053807;28;20226;-71
2022/12/06 02:34:03;;;;;;;13.77;12.77;;;;;;;4.58;100.00;93296.50;5107855;28;20204;-71
2022/12/06 02:37:04;;;;;;;14.23;12.83;;;;;;;4.57;100.00;93300.09;5105350;28;20236;-71
2022/12/06 02:39:35;;;;;;;14.50;13.23;;;;;;;4.31;100.00;93284.25;5071512;28;20259;-71
2022/12/06 02:42:06;;;;;;;15.00;13.80;;;;;;;4.14;100.00;93278.91;5084357;28;20228;-72
2022/12/06 02:44:37;;;;;;;14.60;13.30;;;;;;;4.40;100.00;93283.69;5103528;28;20195;-71
2022/12/06 02:47:06;;;;;;;15.07;13.70;;;;;;;4.50;100.00;93268.38;5101661;28;20232;-71
2022/12/06 02:49:34;;;;;;;17.03;15.43;;;;;;;4.57;100.00;93294.94;5087746;28;20211;-71
2022/12/06 02:52:00;;;;;;;17.13;15.60;;;;;;;4.53;100.00;93286.03;5106352;28;20222;-71
2022/12/06 02:54:28;;;;;;;16.73;15.07;;;;;;;4.60;100.00;93293.69;5110678;28;20215;-73
2022/12/06 02:56:54;;;;;;;16.47;14.97;;;;;;;4.47;100.00;93304.22;5083888;28;20216;-72
2022/12/06 02:59:19;;;;;;;16.50;14.77;;;;;;;4.67;100.00;93299.50;5104469;28;20215;-71
2022/12/06 03:01:51;;;;;;;16.77;15.00;;;;;;;4.65;100.00;93298.97;5109859;28;20694;-72
2022/12/06 03:04:33;;;;;;;17.93;16.07;;;;;;;4.59;100.00;93286.94;5112667;28;20211;-71
2022/12/06 03:07:17;;;;;;;17.57;15.43;;;;;;;4.63;100.00;93293.22;5105397;28;20208;-73
2022/12/06 03:09:54;;;;;;;15.83;14.43;;;;;;;4.66;100.00;93295.34;5109583;28;20202;-73
2022/12/06 03:12:29;;;;;;;17.30;15.60;;;;;;;4.71;100.00;93295.47;5108609;28;20256;-71
2022/12/06 03:15:05;;;;;;;16.57;14.93;;;;;;;4.77;100.00;93292.78;5109264;28;20184;-73
2022/12/06 03:17:40;;;;;;;16.33;14.63;;;;;;;4.70;100.00;93299.84;5107394;28;20231;-72
2022/12/06 03:20:26;;;;;;;15.80;14.47;;;;;;;4.71;100.00;93290.31;5112210;28;20180;-73
2022/12/06 03:22:58;;;;;;;16.50;14.93;;;;;;;4.58;100.00;93270.63;5105112;28;20192;-73
2022/12/06 03:25:25;;;;;;;15.10;13.53;;;;;;;4.82;100.00;93287.69;5107339;28;20188;-72
2022/12/06 03:27:53;;;;;;;15.50;13.90;;;;;;;4.60;100.00;93260.84;5077327;28;20276;-73
2022/12/06 03:30:19;;;;;;;16.93;15.33;;;;;;;4.71;100.00;93280.75;5105358;28;20243;-71
2022/12/06 03:32:48;;;;;;;18.37;14.53;;;;;;;4.75;100.00;93262.97;5111713;28;20185;-73
2022/12/06 03:35:19;;;;;;;26.73;20.00;;;;;;;4.72;100.00;93274.56;5110258;28;20184;-73
2022/12/06 03:37:48;;;;;;;33.47;23.27;;;;;;;4.80;100.00;93279.38;5105767;28;20196;-73
2022/12/06 03:40:29;;;;;;;31.23;21.27;;;;;;;4.82;100.00;93274.75;5104971;28;20187;-73
2022/12/06 03:42:55;;;;;;;21.37;17.40;;;;;;;4.75;100.00;93268.13;5111496;28;20215;-73
2022/12/06 03:45:24;;;;;;;19.83;17.03;;;;;;;4.92;100.00;93276.78;5097778;28;20270;-73
2022/12/06 03:47:59;;;;;;;26.53;19.47;;;;;;;4.77;100.00;93246.22;5111312;28;20177;-72
2022/12/06 03:50:46;;;;;;;19.50;17.33;;;;;;;4.83;100.00;93273.75;5108402;28;20211;-73
2022/12/06 03:53:11;;;;;;;16.93;14.90;;;;;;;4.63;100.00;93241.50;5107266;28;20171;-73
2022/12/06 03:55:36;;;;;;;15.20;14.00;;;;;;;4.91;100.00;93268.25;5096580;28;20520;-73
2022/12/06 03:58:02;;;;;;;15.93;14.57;;;;;;;4.98;100.00;93250.78;5104217;28;20192;-72
2022/12/06 04:00:27;;;;;;;18.23;15.60;;;;;;;5.12;100.00;93260.88;5104692;28;20212;-73
2022/12/06 04:02:52;;;;;;;16.73;15.13;;;;;;;4.78;100.00;93245.19;5090488;28;20403;-73
2022/12/06 04:05:18;;;;;;;17.90;15.90;;;;;;;4.88;100.00;93257.56;5104784;28;20173;-73
2022/12/06 04:07:43;;;;;;;19.33;16.30;;;;;;;4.69;100.00;93220.72;5104432;28;20204;-73
2022/12/06 04:10:09;;;;;;;20.27;17.20;;;;;;;4.67;100.00;93227.91;5110773;28;20208;-73
2022/12/06 04:15:20;;;;;;;17.27;15.47;;;;;;;4.88;100.00;93265.31;5108558;28;20199;-73
2022/12/06 04:23:02;;;;;;;16.10;14.60;;;;;;;4.62;100.00;93269.16;5107515;28;20227;-73
2022/12/06 04:23:17;;;;;;;16.43;14.70;;;;;;;4.87;100.00;93266.34;5110343;28;20184;-74
2022/12/06 04:25:42;;;;;;;18.83;16.17;;;;;;;4.91;100.00;93270.84;5106515;28;20253;-73
2022/12/06 04:39:05;;;;;;;18.53;16.70;;;;;;;4.78;100.00;93272.84;5099341;28;20211;-73
2022/12/06 04:44:15;;;;;;;16.27;14.87;;;;;;;4.79;100.00;93257.09;5092020;28;20214;-72
2022/12/06 04:46:40;;;;;;;18.67;16.80;;;;;;;4.96;100.00;93265.72;5103611;28;20216;-72
2022/12/06 04:49:06;;;;;;;18.17;16.43;;;;;;;5.04;100.00;93263.81;5110517;28;20211;-71
2022/12/06 04:51:32;;;;;;;18.47;16.73;;;;;;;4.99;100.00;93261.94;5104493;28;20227;-71
2022/12/06 04:53:57;;;;;;;17.37;15.60;;;;;;;5.02;100.00;93273.59;5109011;28;20172;-71
2022/12/06 04:56:23;;;;;;;18.83;16.87;;;;;;;5.06;100.00;93262.56;5106450;28;20254;-67
2022/12/06 04:58:48;;;;;;;18.40;16.40;;;;;;;5.07;100.00;93268.53;5105515;28;20222;-73
2022/12/06 05:01:14;;;;;;;17.57;15.80;;;;;;;5.05;100.00;93271.34;5105402;28;20781;-73
2022/12/06 05:03:39;;;;;;;17.57;15.87;;;;;;;4.96;100.00;93272.72;5104085;28;20176;-70
2022/12/06 05:06:05;;;;;;;18.77;16.63;;;;;;;5.08;100.00;93267.50;5101185;28;20223;-69
2022/12/06 05:08:30;;;;;;;18.63;16.90;;;;;;;5.15;100.00;93279.34;5100805;28;20230;-71
2022/12/06 05:10:56;;;;;;;20.87;17.10;;;;;;;5.06;100.00;93283.28;5093712;28;20228;-71
2022/12/06 05:13:21;;;;;;;17.43;15.63;;;;;;;4.99;100.00;93267.09;5108916;28;20172;-71
2022/12/06 05:15:56;;;;;;;17.63;16.10;;;;;;;4.98;100.00;93268.88;5103428;28;20224;-69
2022/12/06 05:18:22;;;;;;;17.87;15.87;;;;;;;4.92;100.00;93274.97;5106858;28;20183;-69
2022/12/06 05:20:48;;;;;;;18.20;16.40;;;;;;;4.97;100.00;93269.91;5106960;28;20946;-70
2022/12/06 05:23:14;;;;;;;18.03;16.23;;;;;;;4.90;100.00;93261.47;5102816;28;20184;-70
2022/12/06 05:25:39;;;;;;;18.00;16.07;;;;;;;4.85;100.00;93261.41;5108048;28;20207;-70
2022/12/06 05:28:05;;;;;;;19.17;16.30;;;;;;;4.89;100.00;93274.63;5107611;28;20503;-70
2022/12/06 05:30:31;;;;;;;18.67;16.67;;;;;;;5.12;100.00;93258.28;5107718;28;20222;-70
2022/12/06 05:32:57;;;;;;;18.37;16.30;;;;;;;5.02;100.00;93271.03;5109085;28;20196;-73
2022/12/06 05:35:22;;;;;;;20.07;17.97;;;;;;;5.06;100.00;93269.56;5105908;28;20192;-72
2022/12/06 05:37:48;;;;;;;20.30;16.60;;;;;;;4.99;100.00;93272.28;5105183;28;20198;-72
2022/12/06 05:40:13;;;;;;;19.57;17.57;;;;;;;4.85;100.00;93252.84;5109742;28;20195;-73
2022/12/06 05:42:39;;;;;;;21.07;18.23;;;;;;;5.07;100.00;93269.34;5108098;28;20227;-71
2022/12/06 05:45:06;;;;;;;21.63;19.40;;;;;;;5.03;100.00;93259.69;5103938;28;20214;-70
2022/12/06 05:47:31;;;;;;;21.07;17.23;;;;;;;5.06;100.00;93259.22;5105882;28;20246;-72
2022/12/06 05:49:57;;;;;;;21.40;19.13;;;;;;;4.85;100.00;93219.22;5108567;28;20208;-72
2022/12/06 05:52:22;;;;;;;24.93;19.67;;;;;;;5.10;100.00;93263.69;5108252;28;20221;-71
2022/12/06 05:54:48;;;;;;;23.77;19.50;;;;;;;5.14;100.00;93254.44;5098420;28;20196;-71
2022/12/06 05:57:13;;;;;;;26.07;18.93;;;;;;;5.19;100.00;93261.53;5101498;28;20232;-71
2022/12/06 05:59:38;;;;;;;23.93;19.73;;;;;;;5.34;100.00;93256.66;5107991;28;20195;-71
2022/12/06 06:02:04;;;;;;;26.73;20.10;;;;;;;5.42;100.00;93261.44;5108914;28;20238;-71
2022/12/06 06:04:29;;;;;;;21.40;18.47;;;;;;;5.29;100.00;93235.84;5104552;28;20188;-71
2022/12/06 06:06:55;;;;;;;22.63;18.17;;;;;;;5.36;100.00;93259.78;5103883;28;20220;-70
2022/12/06 06:09:20;;;;;;;19.73;17.73;;;;;;;5.41;100.00;93258.09;5106469;28;20219;-69
2022/12/06 06:11:45;;;;;;;24.67;22.13;;;;;;;5.43;100.00;93263.03;5104922;28;20232;-68
2022/12/06 06:14:11;;;;;;;18.20;16.30;;;;;;;5.50;100.00;93263.66;5103721;28;20179;-68
2022/12/06 06:16:36;;;;;;;20.47;17.00;;;;;;;5.53;100.00;93265.78;5109808;28;20293;-68
2022/12/06 06:19:02;;;;;;;24.07;17.17;;;;;;;5.42;100.00;93244.13;5111972;28;20183;-68
2022/12/06 06:21:27;;;;;;;17.63;15.90;;;;;;;5.68;100.00;93251.31;5108901;28;20222;-68
2022/12/06 06:23:55;;;;;;;16.03;14.43;;;;;;;5.71;100.00;93250.06;5108118;28;20184;-67
2022/12/06 06:26:21;;;;;;;21.43;15.63;;;;;;;5.76;100.00;93252.75;5111141;28;20306;-68
2022/12/06 06:28:46;;;;;;;17.53;15.63;;;;;;;5.70;100.00;93267.41;5108998;28;20224;-68
2022/12/06 06:31:12;;;;;;;15.43;14.13;;;;;;;5.78;100.00;93269.63;5107955;28;20223;-68
2022/12/06 06:33:37;;;;;;;24.73;22.97;;;;;;;5.89;100.00;93278.38;5102096;28;20169;-68
2022/12/06 06:36:03;;;;;;;16.43;14.17;;;;;;;5.81;98.72;93278.72;5110225;28;20893;-67
2022/12/06 06:38:28;;;;;;;15.03;13.73;;;;;;;5.61;99.79;93271.41;5110853;28;20200;-68
2022/12/06 06:40:54;;;;;;;21.83;17.57;;;;;;;5.75;99.27;93269.31;5111577;28;20224;-67
2022/12/06 06:43:19;;;;;;;17.60;15.80;;;;;;;5.96;98.21;93268.69;5110837;28;20196;-68
2022/12/06 06:45:58;;;;;;;18.47;15.73;;;;;;;5.87;97.56;93251.91;5108844;28;20236;-70
2022/12/06 06:48:25;;;;;;;18.13;16.07;;;;;;;5.95;98.28;93251.53;5103498;28;20213;-71
2022/12/06 06:50:51;;;;;;;16.13;14.47;;;;;;;5.95;97.85;93267.88;5110015;28;20261;-71
2022/12/06 06:53:16;;;;;;;17.97;14.77;;;;;;;6.03;98.17;93249.38;5109199;28;20192;-71
2022/12/06 06:55:43;;;;;;;15.03;13.83;;;;;;;5.98;96.80;93261.44;5110008;28;20237;-71
2022/12/06 06:58:09;;;;;;;15.50;14.20;;;;;;;6.26;96.53;93253.59;5108646;28;20200;-71
2022/12/06 07:00:35;;;;;;;17.57;14.83;;;;;;;6.38;96.36;93249.13;5109932;28;20236;-71
2022/12/06 07:03:00;;;;;;;15.83;14.50;;;;;;;6.34;96.56;93251.41;5110346;28;20265;-71
2022/12/06 07:05:26;;;;;;;15.43;14.03;;;;;;;6.41;96.78;93246.81;5109053;28;20184;-71
2022/12/06 07:07:52;;;;;;;16.27;14.97;;;;;;;6.39;95.47;93253.28;5111078;28;20181;-71
2022/12/06 07:10:17;;;;;;;15.50;14.13;;;;;;;5.94;96.18;93260.34;5101119;28;20216;-69
2022/12/06 07:12:43;;;;;;;17.03;15.03;;;;;;;6.23;95.68;93244.50;5109910;28;20215;-71
2022/12/06 07:15:09;;;;;;;15.97;14.53;;;;;;;6.53;94.75;93264.91;5111431;28;20184;-71
2022/12/06 07:17:35;;;;;;;21.50;13.30;;;;;;;6.54;95.03;93250.91;5107898;28;20792;-71
2022/12/06 07:20:00;;;;;;;14.83;13.43;;;;;;;6.55;94.96;93258.44;5111151;28;20191;-71
2022/12/06 07:22:25;;;;;;;16.93;14.63;;;;;;;6.46;94.34;93259.88;5106556;28;20227;-71
2022/12/06 07:24:51;;;;;;;15.60;14.07;;;;;;;6.27;95.60;93250.75;5102145;28;20218;-72
2022/12/06 07:27:16;;;;;;;16.47;14.70;;;;;;;6.23;94.62;93251.47;5105469;28;20235;-71
2022/12/06 07:29:41;;;;;;;19.73;16.47;;;;;;;6.57;93.63;93257.44;5108237;28;20211;-71
2022/12/06 07:32:07;;;;;;;19.20;15.10;;;;;;;6.51;93.32;93215.88;5109736;28;20295;-70
2022/12/06 07:34:32;;;;;;;18.03;16.27;;;;;;;6.95;92.17;93249.63;5094126;28;20176;-71
2022/12/06 07:36:58;;;;;;;18.93;17.00;;;;;;;7.02;91.49;93245.84;5102345;28;20224;-70
2022/12/06 07:39:23;;;;;;;16.33;14.73;;;;;;;7.14;91.42;93256.13;5108914;28;21018;-70
2022/12/06 07:47:17;;;;;;;16.60;15.00;;;;;;;7.39;86.98;93227.84;5109121;28;20234;-72
2022/12/06 07:49:42;;;;;;;16.57;14.27;;;;;;;7.53;86.91;93244.63;5110511;28;20231;-71
2022/12/06 07:52:07;;;;;;;15.20;13.93;;;;;;;7.46;87.29;93252.59;5108813;28;20227;-72
2022/12/06 07:54:33;;;;;;;16.23;14.67;;;;;;;7.51;86.83;93255.25;5109581;28;20233;-71
2022/12/06 07:56:58;;;;;;;17.97;15.93;;;;;;;7.29;88.20;93228.50;5110597;28;20215;-71
2022/12/06 07:59:24;;;;;;;16.30;14.60;;;;;;;7.40;88.67;93250.97;5106223;28;20206;-69
2022/12/06 08:01:51;;;;;;;16.17;14.17;;;;;;;7.45;88.23;93250.25;5110195;28;20227;-71
2022/12/06 08:04:17;;;;;;;15.30;13.80;;;;;;;7.54;86.82;93246.19;5110766;28;20187;-71
2022/12/06 08:06:42;;;;;;;14.50;13.27;;;;;;;7.57;88.24;93272.47;5099218;28;20208;-72
2022/12/06 08:09:08;;;;;;;15.63;14.03;;;;;;;7.73;86.30;93263.03;5099532;28;20273;-73
2022/12/06 08:11:34;;;;;;;15.83;14.27;;;;;;;7.68;86.65;93260.34;5107484;28;20212;-71
2022/12/06 08:14:00;;;;;;;14.60;13.20;;;;;;;7.87;84.61;93267.59;5104681;28;20209;-72
2022/12/06 08:16:25;;;;;;;14.87;13.47;;;;;;;7.69;85.48;93260.13;5090841;28;20223;-71
2022/12/06 08:18:51;;;;;;;14.20;13.07;;;;;;;7.78;85.79;93261.25;5091835;28;20184;-71
2022/12/06 08:21:17;;;;;;;14.17;13.03;;;;;;;7.97;85.16;93262.47;5107860;28;20228;-72
2022/12/06 08:23:43;;;;;;;15.13;13.60;;;;;;;8.17;83.05;93265.25;5107408;28;20192;-72
2022/12/06 08:26:12;;;;;;;13.70;12.50;;;;;;;8.16;83.48;93262.91;5110486;28;20239;-72
2022/12/06 08:28:38;;;;;;;15.43;12.97;;;;;;;8.24;83.77;93256.47;5099466;28;20220;-70
2022/12/06 08:31:09;;;;;;;13.87;12.70;;;;;;;8.33;82.96;93260.22;5110100;28;20212;-72
2022/12/06 08:33:35;;;;;;;14.33;12.83;;;;;;;8.23;82.25;93254.91;5110801;28;20194;-71
2022/12/06 08:36:07;;;;;;;14.53;13.13;;;;;;;8.03;83.57;93243.28;5085607;28;20219;-70
2022/12/06 08:38:33;;;;;;;15.47;14.17;;;;;;;7.89;84.07;93228.34;5098930;28;20180;-71
2022/12/06 08:40:58;;;;;;;15.43;14.03;;;;;;;8.12;82.58;93246.22;5109840;28;20223;-71
2022/12/06 08:43:24;;;;;;;15.77;14.37;;;;;;;8.10;82.84;93230.88;5110423;28;20188;-71
2022/12/06 08:45:51;;;;;;;15.50;14.00;;;;;;;8.40;82.16;93252.97;5109057;28;20242;-71
2022/12/06 08:48:16;;;;;;;15.97;14.47;;;;;;;8.43;80.81;93239.47;5097487;28;20181;-71
2022/12/06 08:50:41;;;;;;;15.03;13.80;;;;;;;8.31;80.77;93242.25;5098542;28;20223;-71
2022/12/06 08:53:07;;;;;;;14.20;13.00;;;;;;;8.42;80.57;93243.09;5109541;28;20222;-71
2022/12/06 08:55:32;;;;;;;14.50;13.37;;;;;;;8.30;81.23;93255.47;5109823;28;20180;-72
2022/12/06 08:57:58;;;;;;;15.27;13.80;;;;;;;8.18;82.89;93246.03;5110265;28;20172;-71
2022/12/06 09:00:23;;;;;;;17.10;15.37;;;;;;;8.26;82.67;93234.41;5110113;28;20195;-72
2022/12/06 09:02:48;;;;;;;19.27;13.97;;;;;;;8.25;83.64;93252.88;5096653;28;20189;-71
2022/12/06 09:05:14;;;;;;;15.67;14.13;;;;;;;8.35;84.51;93245.13;5106153;28;20205;-71
2022/12/06 09:07:39;;;;;;;16.10;13.20;;;;;;;8.16;83.67;93245.47;5109856;28;20246;-70
2022/12/06 09:10:05;;;;;;;16.70;14.43;;;;;;;8.33;82.31;93223.78;5097852;28;20267;-71
2022/12/06 09:12:30;;;;;;;15.30;13.80;;;;;;;8.52;80.59;93211.94;5103474;28;20216;-72
2022/12/06 09:14:56;;;;;;;18.40;13.73;;;;;;;8.68;80.56;93224.03;5103146;28;20198;-72
2022/12/06 09:17:21;;;;;;;14.43;13.00;;;;;;;8.53;80.56;93223.94;5104612;28;20276;-71
2022/12/06 09:19:46;;;;;;;20.53;14.00;;;;;;;8.44;80.73;93215.78;5104027;28;20256;-71
2022/12/06 09:22:12;;;;;;;15.20;13.67;;;;;;;8.42;81.66;93217.84;5109067;28;20208;-71
2022/12/06 09:24:37;;;;;;;14.87;13.63;;;;;;;8.68;79.61;93206.59;5104231;28;20914;-73
2022/12/06 09:27:03;;;;;;;15.73;14.23;;;;;;;8.31;82.82;93189.44;5108110;28;20226;-71
2022/12/06 09:29:28;;;;;;;16.57;14.47;;;;;;;8.62;80.66;93180.78;5102263;28;20248;-71
2022/12/06 09:31:53;;;;;;;14.80;13.50;;;;;;;8.57;80.48;93199.75;5107348;28;20298;-72
2022/12/06 09:34:19;;;;;;;15.10;13.80;;;;;;;8.38;80.37;93184.78;5109121;28;20226;-72
2022/12/06 09:36:47;;;;;;;19.97;14.30;;;;;;;8.62;80.97;93186.00;5107919;28;20291;-70
2022/12/06 09:39:30;;;;;;;18.47;13.50;;;;;;;8.75;79.54;93172.50;5106527;28;20207;-69
2022/12/06 09:42:01;;;;;;;15.43;14.03;;;;;;;8.65;80.54;93164.66;5095161;28;20245;-71
2022/12/06 09:44:51;;;;;;;16.90;15.20;;;;;;;8.79;79.86;93155.34;5103076;28;20199;-71
2022/12/06 09:47:38;;;;;;;15.17;13.60;;;;;;;8.82;79.67;93160.06;5095797;28;20215;-69
2022/12/06 09:50:07;;;;;;;16.13;14.33;;;;;;;8.78;80.38;93153.81;5104838;28;20203;-70
2022/12/06 09:52:41;;;;;;;16.50;15.03;;;;;;;8.73;80.34;93145.97;5104679;28;20224;-73
2022/12/06 09:55:30;;;;;;;22.03;14.90;;;;;;;8.93;80.45;93151.25;5103656;28;20222;-70
2022/12/06 09:58:17;;;;;;;16.73;14.30;;;;;;;9.01;78.80;93155.97;5101474;28;20208;-71
2022/12/06 10:01:01;;;;;;;19.23;15.37;;;;;;;8.65;79.54;93134.22;5098434;28;20231;-72
2022/12/06 10:03:40;;;;;;;16.17;14.07;;;;;;;8.40;81.26;93154.13;5089911;28;20247;-71
2022/12/06 10:06:13;;;;;;;17.47;13.87;;;;;;;7.94;82.38;93132.97;5107057;28;20239;-70
2022/12/06 10:08:59;;;;;;;16.93;15.00;;;;;;;7.88;84.02;93149.56;5097650;28;20195;-70
2022/12/06 10:11:46;;;;;;;15.80;14.37;;;;;;;7.96;82.32;93136.13;5105331;28;20227;-70
2022/12/06 10:14:29;;;;;;;16.27;14.70;;;;;;;8.36;81.31;93109.59;5107238;28;20180;-71
2022/12/06 10:17:00;;;;;;;16.43;14.73;;;;;;;8.55;80.56;93081.31;5096865;28;20257;-72
2022/12/06 10:20:01;;;;;;;15.80;14.23;;;;;;;8.98;79.83;93115.59;5104601;28;20208;-71
2022/12/06 10:22:48;;;;;;;16.63;15.13;;;;;;;9.01;79.63;93116.91;5072669;28;20219;-70
2022/12/06 10:25:36;;;;;;;16.17;14.53;;;;;;;9.08;78.87;93114.84;5098188;28;20184;-71
2022/12/06 10:28:12;;;;;;;16.27;14.57;;;;;;;9.02;78.48;93108.84;5095167;28;20279;-70
2022/12/06 10:30:49;;;;;;;16.30;14.60;;;;;;;8.97;79.82;93103.63;5104714;28;20219;-70
2022/12/06 10:33:32;;;;;;;15.80;14.33;;;;;;;8.94;79.11;93104.13;5098902;28;20185;-71
2022/12/06 10:36:02;;;;;;;14.33;13.03;;;;;;;8.97;77.07;93110.63;5103952;28;20231;-71
2022/12/06 10:39:02;;;;;;;15.97;14.20;;;;;;;8.86;77.85;93103.81;5106923;28;20207;-70
2022/12/06 10:41:32;;;;;;;15.73;14.33;;;;;;;8.52;79.22;93098.25;5106901;28;21712;-71
2022/12/06 10:44:10;;;;;;;16.17;14.67;;;;;;;8.55;79.74;93094.34;5106171;28;20203;-70
2022/12/06 10:49:31;;;;;;;15.57;14.10;;;;;;;8.76;78.60;93103.81;5105885;28;20234;-70
2022/12/06 10:52:03;;;;;;;15.00;13.67;;;;;;;8.72;78.53;93103.53;5105110;28;20220;-71
2022/12/06 10:54:37;;;;;;;14.97;13.57;;;;;;;8.68;79.80;93106.91;5104798;28;20298;-71
2022/12/06 10:57:10;;;;;;;14.10;12.83;;;;;;;8.60;79.53;93082.16;5106784;28;20234;-70
2022/12/06 10:59:43;;;;;;;14.37;12.87;;;;;;;8.74;78.71;93092.84;5108927;28;20989;-70
2022/12/06 11:02:29;;;;;;;15.37;13.87;;;;;;;8.57;79.94;93074.06;5110282;28;20235;-70
2022/12/06 11:05:01;;;;;;;17.80;13.13;;;;;;;8.62;80.19;93084.50;5104697;28;20191;-71
2022/12/06 11:07:36;;;;;;;14.67;13.27;;;;;;;8.73;79.08;93071.25;5100804;28;20235;-71
2022/12/06 11:10:13;;;;;;;14.60;13.20;;;;;;;8.42;80.08;93040.94;5107317;28;20211;-69
2022/12/06 11:12:39;;;;;;;15.40;13.97;;;;;;;8.71;79.87;93067.34;5105381;28;20283;-69
2022/12/06 11:15:21;;;;;;;15.27;13.73;;;;;;;8.69;81.22;93072.00;5105025;28;20192;-69
2022/12/06 11:17:51;;;;;;;16.03;14.53;;;;;;;8.97;79.60;93055.94;5108178;28;20935;-71
2022/12/06 11:20:29;;;;;;;15.93;14.43;;;;;;;9.27;78.28;93061.22;5109922;28;20184;-69
2022/12/06 11:23:45;;;;;;;15.27;13.50;;;;;;;9.12;79.02;93059.38;5110329;28;20180;-69
2022/12/06 11:26:33;;;;;;;14.47;13.27;;;;;;;9.07;78.73;93053.38;5052368;28;20924;-68
2022/12/06 11:29:04;;;;;;;14.53;13.23;;;;;;;9.01;79.11;93049.22;5108335;28;20216;-68
2022/12/06 11:31:36;;;;;;;16.47;14.90;;;;;;;9.32;79.12;93046.38;5108954;28;20230;-68
2022/12/06 11:34:12;;;;;;;16.17;13.83;;;;;;;9.33;78.47;93040.13;5108754;28;20183;-69
2022/12/06 11:36:38;;;;;;;14.77;13.37;;;;;;;9.25;79.03;93024.22;5107563;28;20258;-67
2022/12/06 11:39:03;;;;;;;15.10;13.47;;;;;;;9.32;79.36;93037.78;5108363;28;20188;-70
2022/12/06 11:41:33;;;;;;;15.10;13.60;;;;;;;9.60;77.51;93037.25;5110270;28;20223;-68
2022/12/06 11:43:59;;;;;;;14.97;13.53;;;;;;;8.99;78.57;93031.25;5108709;28;20196;-69
2022/12/06 11:46:25;;;;;;;15.33;13.93;;;;;;;9.17;78.77;93046.34;5110349;28;20227;-69
2022/12/06 11:48:52;;;;;;;15.13;13.73;;;;;;;9.06;79.05;93043.97;5110107;28;20219;-68
2022/12/06 11:51:21;;;;;;;16.43;14.83;;;;;;;8.98;78.64;93039.31;5109404;28;20216;-70
2022/12/06 11:54:06;;;;;;;15.80;14.50;;;;;;;8.84;79.83;93035.63;5109531;28;20258;-68
2022/12/06 11:56:35;;;;;;;15.53;14.03;;;;;;;8.71;80.74;93028.31;5109437;28;20224;-68
2022/12/06 11:59:15;;;;;;;19.93;18.20;;;;;;;8.82;80.08;93032.50;5105078;28;20203;-68
2022/12/06 12:01:49;;;;;;;14.90;13.50;;;;;;;8.69;81.66;93032.97;5108475;28;20219;-69